createdAt,value
2016-06-22T00:00:56.875Z,1010.84
2016-06-22T00:01:56.785Z,1010.82
2016-06-22T00:02:56.814Z,1010.86
2016-06-22T00:03:56.840Z,1010.85
2016-06-22T00:04:56.867Z,1010.86
2016-06-22T00:05:56.893Z,1010.86
2016-06-22T00:06:56.925Z,1010.83
2016-06-22T00:07:56.954Z,1010.85
2016-06-22T00:08:56.980Z,1010.87
2016-06-22T00:09:56.999Z,1010.9
2016-06-22T00:10:57.027Z,1010.88
2016-06-22T00:11:57.056Z,1010.88
2016-06-22T00:12:57.086Z,1010.89
2016-06-22T00:13:57.209Z,1010.88
2016-06-22T00:14:57.142Z,1010.87
2016-06-22T00:15:57.162Z,1010.89
2016-06-22T00:16:57.190Z,1010.88
2016-06-22T00:17:57.220Z,1010.91
2016-06-22T00:18:57.243Z,1010.89
2016-06-22T00:19:57.274Z,1010.9
2016-06-22T00:20:57.301Z,1010.91
2016-06-22T00:21:57.353Z,1010.93
2016-06-22T00:22:57.350Z,1010.93
2016-06-22T00:23:57.378Z,1010.94
2016-06-22T00:24:57.403Z,1010.89
2016-06-22T00:25:57.431Z,1010.87
2016-06-22T00:26:57.461Z,1010.88
2016-06-22T00:27:57.484Z,1010.84
2016-06-22T00:28:57.510Z,1010.86
2016-06-22T00:29:57.541Z,1010.86
2016-06-22T00:30:57.563Z,1010.84
2016-06-22T00:31:57.592Z,1010.89
2016-06-22T00:32:57.620Z,1010.87
2016-06-22T00:33:57.645Z,1010.88
2016-06-22T00:34:57.673Z,1010.84
2016-06-22T00:35:57.700Z,1010.84
2016-06-22T00:36:57.729Z,1010.84
2016-06-22T00:37:57.754Z,1010.82
2016-06-22T00:38:57.789Z,1010.83
2016-06-22T00:39:57.815Z,1010.81
2016-06-22T00:40:57.943Z,1010.83
2016-06-22T00:41:57.862Z,1010.86
2016-06-22T00:42:57.890Z,1010.81
2016-06-22T00:43:57.914Z,1010.87
2016-06-22T00:44:57.937Z,1010.88
2016-06-22T00:45:57.965Z,1010.84
2016-06-22T00:46:57.995Z,1010.88
2016-06-22T00:47:58.021Z,1010.87
2016-06-22T00:48:58.049Z,1010.86
2016-06-22T00:49:58.074Z,1010.87
2016-06-22T00:50:58.102Z,1010.88
2016-06-22T00:51:58.130Z,1010.86
2016-06-22T00:52:58.156Z,1010.84
2016-06-22T00:53:58.182Z,1010.85
2016-06-22T00:54:58.206Z,1010.85
2016-06-22T00:55:58.233Z,1010.87
2016-06-22T00:56:58.260Z,1010.82
2016-06-22T00:57:58.288Z,1010.81
2016-06-22T00:58:58.314Z,1010.82
2016-06-22T00:59:58.339Z,1010.81
2016-06-22T01:00:58.365Z,1010.83
2016-06-22T01:01:58.393Z,1010.8
2016-06-22T01:02:58.423Z,1010.82
2016-06-22T01:03:58.444Z,1010.78
2016-06-22T01:04:58.475Z,1010.81
2016-06-22T01:05:58.503Z,1010.84
2016-06-22T01:06:58.527Z,1010.82
2016-06-22T01:07:58.555Z,1010.81
2016-06-22T01:08:58.576Z,1010.84
2016-06-22T01:09:58.607Z,1010.8
2016-06-22T01:10:58.634Z,1010.81
2016-06-22T01:11:58.661Z,1010.82
2016-06-22T01:12:58.686Z,1010.84
2016-06-22T01:13:58.709Z,1010.81
2016-06-22T01:14:58.738Z,1010.86
2016-06-22T01:15:58.763Z,1010.84
2016-06-22T01:16:58.794Z,1010.87
2016-06-22T01:17:58.818Z,1010.89
2016-06-22T01:18:58.845Z,1010.87
2016-06-22T01:19:58.876Z,1010.87
2016-06-22T01:20:58.904Z,1010.88
2016-06-22T01:21:58.928Z,1010.86
2016-06-22T01:22:58.953Z,1010.88
2016-06-22T01:23:58.979Z,1010.85
2016-06-22T01:24:59.000Z,1010.8
2016-06-22T01:25:59.037Z,1010.84
2016-06-22T01:26:59.057Z,1010.84
2016-06-22T01:27:59.087Z,1010.8
2016-06-22T01:28:59.111Z,1010.82
2016-06-22T01:29:59.140Z,1010.81
2016-06-22T01:30:59.162Z,1010.81
2016-06-22T01:31:59.190Z,1010.84
2016-06-22T01:32:59.215Z,1010.8
2016-06-22T01:33:59.240Z,1010.86
2016-06-22T01:34:59.271Z,1010.83
2016-06-22T01:35:59.297Z,1010.88
2016-06-22T01:36:59.322Z,1010.88
2016-06-22T01:37:59.346Z,1010.84
2016-06-22T01:38:59.381Z,1010.83
2016-06-22T01:39:59.399Z,1010.83
2016-06-22T01:40:59.426Z,1010.81
2016-06-22T01:41:59.464Z,1010.84
2016-06-22T01:42:59.477Z,1010.83
2016-06-22T01:43:59.506Z,1010.84
2016-06-22T01:44:59.535Z,1010.82
2016-06-22T01:45:59.561Z,1010.8
2016-06-22T01:46:59.590Z,1010.83
2016-06-22T01:47:59.610Z,1010.88
2016-06-22T01:48:59.635Z,1010.85
2016-06-22T01:49:59.662Z,1010.87
2016-06-22T01:50:59.689Z,1010.88
2016-06-22T01:51:59.715Z,1010.85
2016-06-22T01:52:59.743Z,1010.82
2016-06-22T01:53:59.773Z,1010.89
2016-06-22T01:54:59.798Z,1010.84
2016-06-22T01:55:59.822Z,1010.86
2016-06-22T01:56:59.846Z,1010.81
2016-06-22T01:57:59.874Z,1010.91
2016-06-22T01:58:59.989Z,1010.87
2016-06-22T01:59:59.926Z,1010.85
2016-06-22T02:00:59.950Z,1010.9
2016-06-22T02:01:59.980Z,1010.92
2016-06-22T02:03:00.003Z,1010.9
2016-06-22T02:04:00.034Z,1010.93
2016-06-22T02:05:00.062Z,1010.95
2016-06-22T02:06:00.084Z,1010.95
2016-06-22T02:07:00.105Z,1010.94
2016-06-22T02:08:00.139Z,1010.95
2016-06-22T02:09:00.164Z,1010.97
2016-06-22T02:10:00.188Z,1010.98
2016-06-22T02:11:00.217Z,1011.02
2016-06-22T02:12:00.249Z,1010.99
2016-06-22T02:13:00.266Z,1011.01
2016-06-22T02:14:00.301Z,1011
2016-06-22T02:15:00.321Z,1011.01
2016-06-22T02:16:00.344Z,1011.01
2016-06-22T02:17:00.373Z,1011.01
2016-06-22T02:18:00.400Z,1010.99
2016-06-22T02:19:00.427Z,1011.02
2016-06-22T02:20:00.453Z,1010.98
2016-06-22T02:21:00.476Z,1010.98
2016-06-22T02:22:00.506Z,1011.01
2016-06-22T02:23:00.534Z,1010.98
2016-06-22T02:24:00.556Z,1010.97
2016-06-22T02:25:00.580Z,1010.97
2016-06-22T02:26:00.607Z,1010.99
2016-06-22T02:27:00.734Z,1010.97
2016-06-22T02:28:00.728Z,1011.01
2016-06-22T02:29:00.690Z,1011
2016-06-22T02:30:00.727Z,1011.01
2016-06-22T02:31:00.742Z,1010.97
2016-06-22T02:32:00.767Z,1010.99
2016-06-22T02:33:00.796Z,1010.99
2016-06-22T02:34:00.820Z,1010.99
2016-06-22T02:35:00.844Z,1010.98
2016-06-22T02:36:00.869Z,1011.01
2016-06-22T02:37:00.899Z,1010.99
2016-06-22T02:38:00.923Z,1011.03
2016-06-22T02:39:00.950Z,1011.02
2016-06-22T02:40:00.981Z,1011.03
2016-06-22T02:41:01.005Z,1011.01
2016-06-22T02:42:01.036Z,1011.07
2016-06-22T02:43:01.054Z,1011.05
2016-06-22T02:44:01.081Z,1011.05
2016-06-22T02:45:01.110Z,1011.05
2016-06-22T02:46:01.133Z,1011.06
2016-06-22T02:47:01.161Z,1011.07
2016-06-22T02:48:01.185Z,1011.06
2016-06-22T02:49:01.210Z,1011.04
2016-06-22T02:50:01.246Z,1011.06
2016-06-22T02:51:01.264Z,1011.04
2016-06-22T02:52:01.306Z,1011.02
2016-06-22T02:53:01.311Z,1011.03
2016-06-22T02:54:01.340Z,1011.04
2016-06-22T02:55:01.372Z,1011.07
2016-06-22T02:56:01.394Z,1011.04
2016-06-22T02:57:01.423Z,1011.05
2016-06-22T02:58:01.468Z,1011.06
2016-06-22T02:59:01.473Z,1011.06
2016-06-22T03:00:01.495Z,1011.06
2016-06-22T03:01:01.520Z,1011.07
2016-06-22T03:02:01.552Z,1011.08
2016-06-22T03:03:01.576Z,1011.07
2016-06-22T03:04:01.599Z,1011.08
2016-06-22T03:05:01.635Z,1011.06
2016-06-22T03:06:01.661Z,1011.13
2016-06-22T03:07:01.682Z,1011.1
2016-06-22T03:08:01.706Z,1011.1
2016-06-22T03:09:01.735Z,1011.15
2016-06-22T03:10:01.754Z,1011.14
2016-06-22T03:11:01.782Z,1011.1
2016-06-22T03:12:01.810Z,1011.15
2016-06-22T03:13:01.836Z,1011.15
2016-06-22T03:14:01.862Z,1011.18
2016-06-22T03:15:01.888Z,1011.17
2016-06-22T03:16:01.914Z,1011.16
2016-06-22T03:17:01.949Z,1011.17
2016-06-22T03:18:01.969Z,1011.14
2016-06-22T03:19:01.990Z,1011.18
2016-06-22T03:20:02.015Z,1011.14
2016-06-22T03:21:02.045Z,1011.19
2016-06-22T03:22:02.066Z,1011.18
2016-06-22T03:23:02.096Z,1011.18
2016-06-22T03:24:02.118Z,1011.21
2016-06-22T03:25:02.145Z,1011.18
2016-06-22T03:26:02.175Z,1011.15
2016-06-22T03:27:02.199Z,1011.17
2016-06-22T03:28:02.272Z,1011.16
2016-06-22T03:29:02.250Z,1011.11
2016-06-22T03:30:02.278Z,1011.15
2016-06-22T03:31:02.301Z,1011.08
2016-06-22T03:32:02.329Z,1011.1
2016-06-22T03:33:02.360Z,1011.07
2016-06-22T03:34:02.380Z,1011.07
2016-06-22T03:35:02.407Z,1011.12
2016-06-22T03:36:02.435Z,1011.08
2016-06-22T03:37:02.456Z,1011.06
2016-06-22T03:38:02.490Z,1011.1
2016-06-22T03:39:02.512Z,1011.07
2016-06-22T03:40:02.535Z,1011.11
2016-06-22T03:41:02.566Z,1011.09
2016-06-22T03:42:02.588Z,1011.09
2016-06-22T03:43:02.613Z,1011.08
2016-06-22T03:44:02.638Z,1011.1
2016-06-22T03:45:02.666Z,1011.11
2016-06-22T03:46:02.694Z,1011.07
2016-06-22T03:47:02.716Z,1011.1
2016-06-22T03:48:02.744Z,1011.05
2016-06-22T03:49:02.773Z,1011.08
2016-06-22T03:50:02.798Z,1011.06
2016-06-22T03:51:02.825Z,1011.02
2016-06-22T03:52:02.846Z,1011.05
2016-06-22T03:53:02.872Z,1011.02
2016-06-22T03:54:02.901Z,1011.05
2016-06-22T03:55:02.922Z,1011.04
2016-06-22T03:56:02.949Z,1011.08
2016-06-22T03:57:02.977Z,1011.12
2016-06-22T03:58:03.002Z,1011.1
2016-06-22T03:59:03.028Z,1011.12
2016-06-22T04:00:03.059Z,1011.11
2016-06-22T04:01:03.083Z,1011.08
2016-06-22T04:02:03.108Z,1011.1
2016-06-22T04:03:03.130Z,1011.12
2016-06-22T04:04:03.165Z,1011.12
2016-06-22T04:05:03.185Z,1011.12
2016-06-22T04:06:03.208Z,1011.14
2016-06-22T04:07:03.236Z,1011.15
2016-06-22T04:08:03.265Z,1011.15
2016-06-22T04:09:03.288Z,1011.15
2016-06-22T04:10:03.316Z,1011.19
2016-06-22T04:11:03.341Z,1011.21
2016-06-22T04:12:03.363Z,1011.16
2016-06-22T04:13:03.394Z,1011.19
2016-06-22T04:14:03.418Z,1011.19
2016-06-22T04:15:03.441Z,1011.23
2016-06-22T04:16:03.467Z,1011.23
2016-06-22T04:17:03.496Z,1011.23
2016-06-22T04:18:03.518Z,1011.26
2016-06-22T04:19:03.547Z,1011.25
2016-06-22T04:20:03.570Z,1011.28
2016-06-22T04:21:03.597Z,1011.25
2016-06-22T04:22:03.628Z,1011.25
2016-06-22T04:23:03.651Z,1011.25
2016-06-22T04:24:03.673Z,1011.28
2016-06-22T04:25:03.705Z,1011.26
2016-06-22T04:26:03.726Z,1011.28
2016-06-22T04:27:03.752Z,1011.26
2016-06-22T04:28:03.776Z,1011.31
2016-06-22T04:29:03.806Z,1011.29
2016-06-22T04:30:03.834Z,1011.3
2016-06-22T04:31:03.852Z,1011.3
2016-06-22T04:32:03.882Z,1011.29
2016-06-22T04:33:03.910Z,1011.29
2016-06-22T04:34:03.930Z,1011.25
2016-06-22T04:35:03.960Z,1011.28
2016-06-22T04:36:03.987Z,1011.27
2016-06-22T04:37:04.009Z,1011.29
2016-06-22T04:38:04.037Z,1011.27
2016-06-22T04:39:04.067Z,1011.3
2016-06-22T04:40:04.088Z,1011.27
2016-06-22T04:41:04.115Z,1011.27
2016-06-22T04:42:04.141Z,1011.24
2016-06-22T04:43:04.165Z,1011.24
2016-06-22T04:44:04.194Z,1011.26
2016-06-22T04:45:04.218Z,1011.26
2016-06-22T04:46:04.240Z,1011.27
2016-06-22T04:47:04.272Z,1011.28
2016-06-22T04:48:04.292Z,1011.27
2016-06-22T04:49:04.319Z,1011.26
2016-06-22T04:50:04.346Z,1011.28
2016-06-22T04:51:04.377Z,1011.26
2016-06-22T04:52:04.402Z,1011.29
2016-06-22T04:53:04.431Z,1011.3
2016-06-22T04:54:04.450Z,1011.32
2016-06-22T04:55:04.477Z,1011.32
2016-06-22T04:56:04.507Z,1011.31
2016-06-22T04:57:04.534Z,1011.31
2016-06-22T04:58:04.555Z,1011.36
2016-06-22T04:59:04.581Z,1011.34
2016-06-22T05:00:04.612Z,1011.34
2016-06-22T05:01:04.633Z,1011.36
2016-06-22T05:02:04.663Z,1011.35
2016-06-22T05:03:04.693Z,1011.35
2016-06-22T05:04:04.715Z,1011.36
2016-06-22T05:05:04.738Z,1011.35
2016-06-22T05:06:04.765Z,1011.33
2016-06-22T05:07:04.790Z,1011.35
2016-06-22T05:08:04.816Z,1011.34
2016-06-22T05:09:04.843Z,1011.34
2016-06-22T05:10:04.871Z,1011.37
2016-06-22T05:11:04.895Z,1011.4
2016-06-22T05:12:04.918Z,1011.37
2016-06-22T05:13:04.946Z,1011.39
2016-06-22T05:14:04.975Z,1011.39
2016-06-22T05:15:05.003Z,1011.4
2016-06-22T05:16:05.022Z,1011.43
2016-06-22T05:17:05.055Z,1011.39
2016-06-22T05:18:05.077Z,1011.43
2016-06-22T05:19:05.100Z,1011.37
2016-06-22T05:20:05.131Z,1011.42
2016-06-22T05:21:05.159Z,1011.39
2016-06-22T05:22:05.179Z,1011.41
2016-06-22T05:23:05.211Z,1011.43
2016-06-22T05:24:05.231Z,1011.45
2016-06-22T05:25:05.258Z,1011.48
2016-06-22T05:26:05.288Z,1011.49
2016-06-22T05:27:05.310Z,1011.45
2016-06-22T05:28:05.339Z,1011.47
2016-06-22T05:29:05.367Z,1011.46
2016-06-22T05:30:05.395Z,1011.49
2016-06-22T05:31:05.415Z,1011.47
2016-06-22T05:32:05.443Z,1011.52
2016-06-22T05:33:05.473Z,1011.51
2016-06-22T05:34:05.497Z,1011.53
2016-06-22T05:35:05.527Z,1011.53
2016-06-22T05:36:05.548Z,1011.5
2016-06-22T05:37:05.577Z,1011.47
2016-06-22T05:38:05.604Z,1011.49
2016-06-22T05:39:05.626Z,1011.47
2016-06-22T05:40:05.654Z,1011.53
2016-06-22T05:41:05.683Z,1011.48
2016-06-22T05:42:05.708Z,1011.52
2016-06-22T05:43:05.738Z,1011.47
2016-06-22T05:44:05.765Z,1011.5
2016-06-22T05:45:05.783Z,1011.53
2016-06-22T05:46:05.815Z,1011.51
2016-06-22T05:47:05.842Z,1011.53
2016-06-22T05:48:05.867Z,1011.49
2016-06-22T05:49:05.891Z,1011.53
2016-06-22T05:50:05.920Z,1011.56
2016-06-22T05:51:05.950Z,1011.48
2016-06-22T05:52:05.973Z,1011.51
2016-06-22T05:53:05.999Z,1011.56
2016-06-22T05:54:06.026Z,1011.54
2016-06-22T05:55:06.051Z,1011.57
2016-06-22T05:56:06.076Z,1011.58
2016-06-22T05:57:06.108Z,1011.59
2016-06-22T05:58:06.135Z,1011.57
2016-06-22T05:59:06.162Z,1011.57
2016-06-22T06:00:06.187Z,1011.62
2016-06-22T06:01:06.209Z,1011.6
2016-06-22T06:02:06.239Z,1011.59
2016-06-22T06:03:06.260Z,1011.6
2016-06-22T06:04:06.302Z,1011.61
2016-06-22T06:05:06.317Z,1011.57
2016-06-22T06:06:06.343Z,1011.61
2016-06-22T06:07:06.373Z,1011.59
2016-06-22T06:08:06.407Z,1011.65
2016-06-22T06:09:06.423Z,1011.65
2016-06-22T06:10:06.452Z,1011.65
2016-06-22T06:11:06.514Z,1011.64
2016-06-22T06:12:06.502Z,1011.67
2016-06-22T06:13:06.534Z,1011.69
2016-06-22T06:14:06.556Z,1011.72
2016-06-22T06:15:06.585Z,1011.7
2016-06-22T06:16:06.612Z,1011.73
2016-06-22T06:17:06.647Z,1011.72
2016-06-22T06:18:06.661Z,1011.73
2016-06-22T06:19:06.695Z,1011.71
2016-06-22T06:20:06.716Z,1011.74
2016-06-22T06:21:06.747Z,1011.73
2016-06-22T06:22:06.770Z,1011.74
2016-06-22T06:23:06.802Z,1011.75
2016-06-22T06:24:06.826Z,1011.75
2016-06-22T06:25:06.854Z,1011.71
2016-06-22T06:26:06.891Z,1011.68
2016-06-22T06:27:06.914Z,1011.75
2016-06-22T06:28:06.935Z,1011.72
2016-06-22T06:29:06.962Z,1011.7
2016-06-22T06:30:06.988Z,1011.72
2016-06-22T06:31:07.014Z,1011.73
2016-06-22T06:32:07.040Z,1011.73
2016-06-22T06:33:07.069Z,1011.72
2016-06-22T06:34:07.093Z,1011.73
2016-06-22T06:35:07.126Z,1011.7
2016-06-22T06:36:07.151Z,1011.68
2016-06-22T06:37:07.174Z,1011.69
2016-06-22T06:38:07.206Z,1011.65
2016-06-22T06:39:07.237Z,1011.65
2016-06-22T06:40:07.259Z,1011.65
2016-06-22T06:41:07.287Z,1011.65
2016-06-22T06:42:07.312Z,1011.69
2016-06-22T06:43:07.339Z,1011.67
2016-06-22T06:44:07.369Z,1011.71
2016-06-22T06:45:07.395Z,1011.65
2016-06-22T06:46:07.424Z,1011.7
2016-06-22T06:47:07.447Z,1011.72
2016-06-22T06:48:07.486Z,1011.73
2016-06-22T06:49:07.501Z,1011.76
2016-06-22T06:50:07.534Z,1011.78
2016-06-22T06:51:07.563Z,1011.74
2016-06-22T06:52:07.588Z,1011.77
2016-06-22T06:53:07.622Z,1011.76
2016-06-22T06:54:07.644Z,1011.74
2016-06-22T06:55:07.667Z,1011.82
2016-06-22T06:56:07.699Z,1011.77
2016-06-22T06:57:07.732Z,1011.78
2016-06-22T06:58:07.754Z,1011.8
2016-06-22T06:59:07.779Z,1011.81
2016-06-22T07:00:07.813Z,1011.81
2016-06-22T07:01:07.836Z,1011.79
2016-06-22T07:02:07.868Z,1011.78
2016-06-22T07:03:07.891Z,1011.78
2016-06-22T07:04:07.923Z,1011.8
2016-06-22T07:05:07.945Z,1011.79
2016-06-22T07:06:07.970Z,1011.81
2016-06-22T07:07:08.007Z,1011.83
2016-06-22T07:08:08.037Z,1011.85
2016-06-22T07:09:08.060Z,1011.88
2016-06-22T07:10:08.083Z,1011.85
2016-06-22T07:11:08.114Z,1011.87
2016-06-22T07:12:08.161Z,1011.88
2016-06-22T07:13:08.168Z,1011.86
2016-06-22T07:14:08.197Z,1011.85
2016-06-22T07:15:08.232Z,1011.83
2016-06-22T07:16:08.251Z,1011.81
2016-06-22T07:17:08.282Z,1011.84
2016-06-22T07:18:08.323Z,1011.86
2016-06-22T07:19:08.333Z,1011.83
2016-06-22T07:20:08.364Z,1011.86
2016-06-22T07:21:08.526Z,1011.86
2016-06-22T07:22:08.423Z,1011.89
2016-06-22T07:23:08.446Z,1011.88
2016-06-22T07:24:08.475Z,1011.9
2016-06-22T07:25:08.594Z,1011.88
2016-06-22T07:26:08.633Z,1011.89
2016-06-22T07:27:08.583Z,1011.91
2016-06-22T07:28:08.834Z,1011.91
2016-06-22T07:29:08.651Z,1011.91
2016-06-22T07:30:08.688Z,1011.91
2016-06-22T07:31:08.671Z,1011.92
2016-06-22T07:32:08.710Z,1011.91
2016-06-22T07:33:08.777Z,1011.88
2016-06-22T07:34:08.789Z,1011.9
2016-06-22T07:35:08.980Z,1011.91
2016-06-22T07:36:08.817Z,1011.9
2016-06-22T07:37:09.107Z,1011.88
2016-06-22T07:38:08.872Z,1011.94
2016-06-22T07:39:09.168Z,1011.92
2016-06-22T07:40:09.058Z,1011.91
2016-06-22T07:41:08.963Z,1011.94
2016-06-22T07:42:08.986Z,1011.94
2016-06-22T07:43:09.015Z,1011.98
2016-06-22T07:44:09.039Z,1011.97
2016-06-22T07:45:09.076Z,1011.99
2016-06-22T07:46:09.146Z,1011.99
2016-06-22T07:47:09.130Z,1012
2016-06-22T07:48:09.160Z,1011.97
2016-06-22T07:49:09.193Z,1012.03
2016-06-22T07:50:09.213Z,1012
2016-06-22T07:51:09.238Z,1012.03
2016-06-22T07:52:09.267Z,1012.05
2016-06-22T07:53:09.360Z,1012.06
2016-06-22T07:54:09.330Z,1011.99
2016-06-22T07:55:09.358Z,1012.03
2016-06-22T07:56:09.387Z,1012.05
2016-06-22T07:57:09.412Z,1012.02
2016-06-22T07:58:09.443Z,1012.01
2016-06-22T07:59:09.471Z,1011.98
2016-06-22T08:00:09.506Z,1011.98
2016-06-22T08:01:09.526Z,1011.99
2016-06-22T08:02:09.561Z,1011.96
2016-06-22T08:03:09.584Z,1011.93
2016-06-22T08:04:09.616Z,1011.96
2016-06-22T08:05:09.645Z,1012
2016-06-22T08:06:09.668Z,1011.97
2016-06-22T08:07:09.702Z,1011.96
2016-06-22T08:08:09.734Z,1011.96
2016-06-22T08:09:09.761Z,1011.94
2016-06-22T08:10:09.792Z,1011.93
2016-06-22T08:11:09.827Z,1011.91
2016-06-22T08:12:09.854Z,1011.91
2016-06-22T08:13:09.874Z,1011.94
2016-06-22T08:14:09.910Z,1011.94
2016-06-22T08:15:09.935Z,1011.91
2016-06-22T08:16:09.963Z,1011.92
2016-06-22T08:17:09.994Z,1012
2016-06-22T08:18:10.025Z,1011.96
2016-06-22T08:19:10.051Z,1011.88
2016-06-22T08:20:10.079Z,1011.88
2016-06-22T08:21:10.108Z,1011.91
2016-06-22T08:22:10.139Z,1011.89
2016-06-22T08:23:10.250Z,1011.83
2016-06-22T08:24:10.200Z,1011.84
2016-06-22T08:25:10.229Z,1011.87
2016-06-22T08:26:10.252Z,1011.86
2016-06-22T08:27:10.289Z,1011.87
2016-06-22T08:28:10.317Z,1011.86
2016-06-22T08:29:10.348Z,1011.84
2016-06-22T08:30:10.373Z,1011.81
2016-06-22T08:31:10.403Z,1011.8
2016-06-22T08:32:10.439Z,1011.82
2016-06-22T08:33:10.467Z,1011.83
2016-06-22T08:34:10.508Z,1011.83
2016-06-22T08:35:10.522Z,1011.83
2016-06-22T08:36:10.554Z,1011.83
2016-06-22T08:37:10.584Z,1011.84
2016-06-22T08:38:10.611Z,1011.86
2016-06-22T08:39:10.645Z,1011.89
2016-06-22T08:40:10.672Z,1011.91
2016-06-22T08:41:10.699Z,1011.88
2016-06-22T08:42:10.735Z,1011.9
2016-06-22T08:43:10.762Z,1011.86
2016-06-22T08:44:10.792Z,1011.86
2016-06-22T08:45:10.819Z,1011.9
2016-06-22T08:46:10.847Z,1011.88
2016-06-22T08:47:10.885Z,1011.87
2016-06-22T08:48:10.912Z,1011.84
2016-06-22T08:49:10.948Z,1011.92
2016-06-22T08:50:10.985Z,1011.91
2016-06-22T08:51:11.005Z,1011.91
2016-06-22T08:52:11.031Z,1011.88
2016-06-22T08:53:11.062Z,1011.91
2016-06-22T08:54:11.179Z,1011.89
2016-06-22T08:55:11.130Z,1011.92
2016-06-22T08:56:11.158Z,1011.93
2016-06-22T08:57:11.183Z,1011.9
2016-06-22T08:58:11.214Z,1011.89
2016-06-22T08:59:11.242Z,1011.98
2016-06-22T09:00:11.275Z,1011.96
2016-06-22T09:01:11.302Z,1011.94
2016-06-22T09:02:11.338Z,1011.98
2016-06-22T09:03:11.375Z,1012
2016-06-22T09:04:11.399Z,1012
2016-06-22T09:05:11.431Z,1012.03
2016-06-22T09:06:11.457Z,1012.04
2016-06-22T09:07:11.587Z,1012.04
2016-06-22T09:08:11.522Z,1012
2016-06-22T09:09:11.627Z,1012.02
2016-06-22T09:10:11.582Z,1012.06
2016-06-22T09:11:11.613Z,1012.07
2016-06-22T09:12:11.637Z,1012.05
2016-06-22T09:13:11.669Z,1012.07
2016-06-22T09:14:11.705Z,1012.05
2016-06-22T09:15:11.758Z,1012.05
2016-06-22T09:16:11.766Z,1012.03
2016-06-22T09:17:11.793Z,1012.07
2016-06-22T09:18:11.828Z,1012.06
2016-06-22T09:19:11.854Z,1012.07
2016-06-22T09:20:11.885Z,1012.08
2016-06-22T09:21:11.919Z,1012.11
2016-06-22T09:22:11.963Z,1012.12
2016-06-22T09:23:11.974Z,1012.11
2016-06-22T09:24:12.007Z,1012.12
2016-06-22T09:25:12.051Z,1012.13
2016-06-22T09:26:12.074Z,1012.16
2016-06-22T09:27:12.103Z,1012.16
2016-06-22T09:28:12.183Z,1012.15
2016-06-22T09:29:12.167Z,1012.17
2016-06-22T09:30:12.195Z,1012.16
2016-06-22T09:31:12.607Z,1012.12
2016-06-22T09:32:12.252Z,1012.16
2016-06-22T09:33:12.291Z,1012.19
2016-06-22T09:34:12.322Z,1012.1
2016-06-22T09:35:12.355Z,1012.15
2016-06-22T09:36:12.378Z,1012.12
2016-06-22T09:37:12.415Z,1012.14
2016-06-22T09:38:12.452Z,1012.14
2016-06-22T09:39:12.480Z,1012.13
2016-06-22T09:40:12.507Z,1012.19
2016-06-22T09:41:12.537Z,1012.15
2016-06-22T09:42:12.563Z,1012.14
2016-06-22T09:43:12.597Z,1012.18
2016-06-22T09:44:12.638Z,1012.17
2016-06-22T09:45:12.662Z,1012.14
2016-06-22T09:46:12.693Z,1012.16
2016-06-22T09:47:12.725Z,1012.12
2016-06-22T09:48:12.759Z,1012.12
2016-06-22T09:49:12.794Z,1012.09
2016-06-22T09:50:12.817Z,1012.11
2016-06-22T09:51:12.855Z,1012.11
2016-06-22T09:52:12.882Z,1012.14
2016-06-22T09:53:12.922Z,1012.11
2016-06-22T09:54:12.943Z,1012.11
2016-06-22T09:55:12.975Z,1012.12
2016-06-22T09:56:13.010Z,1012.13
2016-06-22T09:57:13.034Z,1012.14
2016-06-22T09:58:13.171Z,1012.09
2016-06-22T09:59:13.103Z,1012.06
2016-06-22T10:00:13.136Z,1012.1
2016-06-22T10:01:13.165Z,1012.07
2016-06-22T10:02:13.204Z,1012.09
2016-06-22T10:03:13.231Z,1012.08
2016-06-22T10:04:13.262Z,1012.05
2016-06-22T10:05:13.293Z,1012.07
2016-06-22T10:06:13.325Z,1012.06
2016-06-22T10:07:13.359Z,1012.08
2016-06-22T10:08:13.394Z,1012.12
2016-06-22T10:09:13.424Z,1012.13
2016-06-22T10:10:13.458Z,1012.12
2016-06-22T10:11:13.481Z,1012.14
2016-06-22T10:12:13.527Z,1012.13
2016-06-22T10:13:13.549Z,1012.13
2016-06-22T10:14:13.578Z,1012.12
2016-06-22T10:15:13.637Z,1012.14
2016-06-22T10:16:13.649Z,1012.13
2016-06-22T10:17:13.679Z,1012.08
2016-06-22T10:18:13.711Z,1012.09
2016-06-22T10:19:13.735Z,1012.13
2016-06-22T10:20:13.787Z,1012.15
2016-06-22T10:21:13.799Z,1012.09
2016-06-22T10:22:13.833Z,1012.09
2016-06-22T10:23:13.867Z,1012.1
2016-06-22T10:24:13.898Z,1012.07
2016-06-22T10:25:13.931Z,1012.12
2016-06-22T10:26:13.960Z,1012.17
2016-06-22T10:27:13.994Z,1012.11
2016-06-22T10:28:14.030Z,1012.11
2016-06-22T10:29:14.058Z,1012.16
2016-06-22T10:30:14.753Z,1012.11
2016-06-22T10:31:14.129Z,1012.13
2016-06-22T10:32:14.165Z,1012.11
2016-06-22T10:33:14.196Z,1012.12
2016-06-22T10:34:14.222Z,1012.16
2016-06-22T10:35:14.253Z,1012.15
2016-06-22T10:36:14.291Z,1012.17
2016-06-22T10:37:14.315Z,1012.2
2016-06-22T10:38:14.371Z,1012.16
2016-06-22T10:39:14.380Z,1012.16
2016-06-22T10:40:14.420Z,1012.14
2016-06-22T10:41:14.450Z,1012.14
2016-06-22T10:42:14.482Z,1012.18
2016-06-22T10:44:14.548Z,1012.18
2016-06-22T10:45:14.586Z,1012.21
2016-06-22T10:46:14.609Z,1012.23
2016-06-22T10:47:14.643Z,1012.23
2016-06-22T10:48:14.680Z,1012.23
2016-06-22T10:49:14.714Z,1012.24
2016-06-22T10:50:14.742Z,1012.25
2016-06-22T10:51:14.772Z,1012.27
2016-06-22T10:52:14.807Z,1012.25
2016-06-22T10:53:14.841Z,1012.27
2016-06-22T10:54:14.878Z,1012.24
2016-06-22T10:55:14.907Z,1012.26
2016-06-22T10:56:14.948Z,1012.26
2016-06-22T10:57:14.977Z,1012.28
2016-06-22T10:58:15.005Z,1012.27
2016-06-22T10:59:15.040Z,1012.26
2016-06-22T11:00:15.070Z,1012.23
2016-06-22T11:01:15.106Z,1012.26
2016-06-22T11:02:15.180Z,1012.2
2016-06-22T11:03:15.176Z,1012.23
2016-06-22T11:04:15.205Z,1012.17
2016-06-22T11:05:15.237Z,1012.19
2016-06-22T11:06:15.269Z,1012.19
2016-06-22T11:07:15.298Z,1012.21
2016-06-22T11:08:15.380Z,1012.22
2016-06-22T11:09:15.368Z,1012.27
2016-06-22T11:10:15.403Z,1012.28
2016-06-22T11:11:15.436Z,1012.22
2016-06-22T11:12:15.472Z,1012.17
2016-06-22T11:13:15.514Z,1012.19
2016-06-22T11:14:15.531Z,1012.2
2016-06-22T11:15:15.571Z,1012.16
2016-06-22T11:16:15.596Z,1012.16
2016-06-22T11:17:15.635Z,1012.15
2016-06-22T11:18:15.669Z,1012.16
2016-06-22T11:19:15.700Z,1012.15
2016-06-22T11:20:15.736Z,1012.13
2016-06-22T11:21:15.766Z,1012.12
2016-06-22T11:22:15.805Z,1012.07
2016-06-22T11:23:15.893Z,1012.07
2016-06-22T11:24:15.872Z,1012.08
2016-06-22T11:25:15.907Z,1012.08
2016-06-22T11:26:15.937Z,1012.12
2016-06-22T11:27:15.968Z,1012.11
2016-06-22T11:28:16.002Z,1012.07
2016-06-22T11:29:16.033Z,1012.04
2016-06-22T11:30:16.069Z,1012
2016-06-22T11:31:16.110Z,1012
2016-06-22T11:32:16.133Z,1012.02
2016-06-22T11:33:16.170Z,1012.04
2016-06-22T11:34:16.201Z,1012
2016-06-22T11:35:16.238Z,1012
2016-06-22T11:36:16.269Z,1012.01
2016-06-22T11:37:16.303Z,1012.06
2016-06-22T11:38:16.338Z,1012.03
2016-06-22T11:39:16.368Z,1012.07
2016-06-22T11:40:16.404Z,1012
2016-06-22T11:41:16.438Z,1011.98
2016-06-22T11:42:16.475Z,1011.98
2016-06-22T11:43:16.504Z,1011.98
2016-06-22T11:44:16.545Z,1011.97
2016-06-22T11:45:16.575Z,1011.99
2016-06-22T11:46:16.608Z,1012
2016-06-22T11:47:16.638Z,1012
2016-06-22T11:48:16.676Z,1011.96
2016-06-22T11:49:16.708Z,1012.02
2016-06-22T11:50:16.745Z,1011.98
2016-06-22T11:51:16.774Z,1011.98
2016-06-22T11:52:16.811Z,1011.98
2016-06-22T11:53:16.850Z,1012.02
2016-06-22T11:54:16.894Z,1011.95
2016-06-22T11:55:16.911Z,1011.97
2016-06-22T11:56:16.946Z,1011.94
2016-06-22T11:57:16.982Z,1011.94
2016-06-22T11:58:17.025Z,1011.95
2016-06-22T11:59:17.054Z,1011.96
2016-06-22T12:00:17.088Z,1011.92
2016-06-22T12:01:17.118Z,1011.94
2016-06-22T12:02:17.150Z,1011.98
2016-06-22T12:03:17.291Z,1011.97
2016-06-22T12:04:17.305Z,1011.93
2016-06-22T12:05:17.255Z,1011.96
2016-06-22T12:06:17.288Z,1011.91
2016-06-22T12:07:17.326Z,1011.96
2016-06-22T12:08:17.356Z,1011.93
2016-06-22T12:09:17.397Z,1011.93
2016-06-22T12:10:17.426Z,1011.92